sensor_id;sensor_type;location;lat;lon;timestamp;P1;durP1;ratioP1;P2;durP2;ratioP2
2888;SDS011;1453;42.708;23.282;2022-10-13T00:00:43;42.53;;;28.60;;
2888;SDS011;1453;42.708;23.282;2022-10-13T00:03:11;50.00;;;29.70;;
2888;SDS011;1453;42.708;23.282;2022-10-13T00:05:41;47.27;;;29.20;;
2888;SDS011;1453;42.708;23.282;2022-10-13T00:08:13;48.70;;;29.43;;
2888;SDS011;1453;42.708;23.282;2022-10-13T00:10:43;46.13;;;28.80;;
2888;SDS011;1453;42.708;23.282;2022-10-13T00:13:11;48.63;;;29.67;;
2888;SDS011;1453;42.708;23.282;2022-10-13T00:15:42;39.30;;;24.90;;
2888;SDS011;1453;42.708;23.282;2022-10-13T00:18:09;51.23;;;30.30;;
2888;SDS011;1453;42.708;23.282;2022-10-13T00:20:46;43.00;;;28.20;;
2888;SDS011;1453;42.708;23.282;2022-10-13T00:23:14;46.03;;;26.67;;
2888;SDS011;1453;42.708;23.282;2022-10-13T00:25:45;69.87;;;39.17;;
2888;SDS011;1453;42.708;23.282;2022-10-13T00:28:13;45.17;;;28.70;;
2888;SDS011;1453;42.708;23.282;2022-10-13T00:30:43;49.43;;;32.57;;
2888;SDS011;1453;42.708;23.282;2022-10-13T00:33:09;48.20;;;30.17;;
2888;SDS011;1453;42.708;23.282;2022-10-13T00:35:46;46.90;;;27.70;;
2888;SDS011;1453;42.708;23.282;2022-10-13T00:38:15;41.60;;;27.10;;
2888;SDS011;1453;42.708;23.282;2022-10-13T00:40:49;37.13;;;22.67;;
2888;SDS011;1453;42.708;23.282;2022-10-13T00:43:19;34.43;;;22.17;;
2888;SDS011;1453;42.708;23.282;2022-10-13T00:45:46;32.90;;;22.35;;
2888;SDS011;1453;42.708;23.282;2022-10-13T00:48:19;40.50;;;23.43;;
2888;SDS011;1453;42.708;23.282;2022-10-13T00:50:49;34.70;;;23.57;;
2888;SDS011;1453;42.708;23.282;2022-10-13T00:53:16;40.20;;;25.67;;
2888;SDS011;1453;42.708;23.282;2022-10-13T00:55:45;37.30;;;23.67;;
2888;SDS011;1453;42.708;23.282;2022-10-13T00:58:13;36.90;;;23.80;;
2888;SDS011;1453;42.708;23.282;2022-10-13T01:00:47;33.72;;;23.33;;
2888;SDS011;1453;42.708;23.282;2022-10-13T01:03:15;34.80;;;24.20;;
2888;SDS011;1453;42.708;23.282;2022-10-13T01:05:44;36.67;;;22.58;;
2888;SDS011;1453;42.708;23.282;2022-10-13T01:08:12;33.85;;;22.25;;
2888;SDS011;1453;42.708;23.282;2022-10-13T01:13:45;34.97;;;22.90;;
2888;SDS011;1453;42.708;23.282;2022-10-13T01:19:24;62.25;;;36.72;;
2888;SDS011;1453;42.708;23.282;2022-10-13T01:28:23;52.93;;;29.70;;
2888;SDS011;1453;42.708;23.282;2022-10-13T01:32:00;35.65;;;22.83;;
2888;SDS011;1453;42.708;23.282;2022-10-13T01:34:34;38.97;;;22.77;;
2888;SDS011;1453;42.708;23.282;2022-10-13T01:37:18;65.72;;;41.58;;
2888;SDS011;1453;42.708;23.282;2022-10-13T01:39:59;136.60;;;75.75;;
2888;SDS011;1453;42.708;23.282;2022-10-13T01:45:40;94.93;;;56.00;;
2888;SDS011;1453;42.708;23.282;2022-10-13T01:48:11;77.30;;;51.33;;
2888;SDS011;1453;42.708;23.282;2022-10-13T01:50:39;85.00;;;57.30;;
2888;SDS011;1453;42.708;23.282;2022-10-13T01:53:05;72.63;;;50.50;;
2888;SDS011;1453;42.708;23.282;2022-10-13T01:55:32;82.33;;;50.40;;
2888;SDS011;1453;42.708;23.282;2022-10-13T01:57:58;78.50;;;51.70;;
2888;SDS011;1453;42.708;23.282;2022-10-13T02:00:24;65.10;;;40.00;;
2888;SDS011;1453;42.708;23.282;2022-10-13T02:11:38;69.17;;;41.50;;
2888;SDS011;1453;42.708;23.282;2022-10-13T02:14:15;72.87;;;45.10;;
2888;SDS011;1453;42.708;23.282;2022-10-13T02:16:55;82.67;;;52.97;;
2888;SDS011;1453;42.708;23.282;2022-10-13T02:19:27;72.67;;;45.70;;
2888;SDS011;1453;42.708;23.282;2022-10-13T02:21:55;75.53;;;48.78;;
2888;SDS011;1453;42.708;23.282;2022-10-13T02:24:22;61.50;;;38.03;;
2888;SDS011;1453;42.708;23.282;2022-10-13T02:26:48;50.87;;;29.80;;
2888;SDS011;1453;42.708;23.282;2022-10-13T02:29:15;52.60;;;30.47;;
2888;SDS011;1453;42.708;23.282;2022-10-13T02:31:43;45.22;;;29.67;;
2888;SDS011;1453;42.708;23.282;2022-10-13T02:34:10;51.70;;;29.00;;
2888;SDS011;1453;42.708;23.282;2022-10-13T02:36:37;47.57;;;29.60;;
2888;SDS011;1453;42.708;23.282;2022-10-13T02:39:04;48.13;;;31.63;;
2888;SDS011;1453;42.708;23.282;2022-10-13T02:41:32;45.15;;;28.83;;
2888;SDS011;1453;42.708;23.282;2022-10-13T02:43:58;42.83;;;26.80;;
2888;SDS011;1453;42.708;23.282;2022-10-13T02:46:24;42.60;;;26.93;;
2888;SDS011;1453;42.708;23.282;2022-10-13T02:48:50;50.25;;;28.60;;
2888;SDS011;1453;42.708;23.282;2022-10-13T02:51:16;47.40;;;28.30;;
2888;SDS011;1453;42.708;23.282;2022-10-13T02:53:41;45.93;;;26.90;;
2888;SDS011;1453;42.708;23.282;2022-10-13T02:56:07;41.60;;;27.00;;
2888;SDS011;1453;42.708;23.282;2022-10-13T02:58:33;35.37;;;22.83;;
2888;SDS011;1453;42.708;23.282;2022-10-13T03:01:10;42.40;;;24.85;;
2888;SDS011;1453;42.708;23.282;2022-10-13T03:03:38;42.85;;;24.60;;
2888;SDS011;1453;42.708;23.282;2022-10-13T03:06:04;43.20;;;24.80;;
2888;SDS011;1453;42.708;23.282;2022-10-13T03:08:31;42.28;;;24.73;;
2888;SDS011;1453;42.708;23.282;2022-10-13T03:10:59;43.45;;;25.25;;
2888;SDS011;1453;42.708;23.282;2022-10-13T03:13:25;45.28;;;26.60;;
2888;SDS011;1453;42.708;23.282;2022-10-13T03:15:51;42.60;;;25.35;;
2888;SDS011;1453;42.708;23.282;2022-10-13T03:18:17;42.60;;;26.53;;
2888;SDS011;1453;42.708;23.282;2022-10-13T03:20:43;50.63;;;26.50;;
2888;SDS011;1453;42.708;23.282;2022-10-13T03:23:09;44.00;;;25.93;;
2888;SDS011;1453;42.708;23.282;2022-10-13T03:25:35;47.03;;;24.33;;
2888;SDS011;1453;42.708;23.282;2022-10-13T03:28:01;42.20;;;25.37;;
2888;SDS011;1453;42.708;23.282;2022-10-13T03:30:27;41.80;;;26.20;;
2888;SDS011;1453;42.708;23.282;2022-10-13T03:32:53;40.28;;;25.10;;
2888;SDS011;1453;42.708;23.282;2022-10-13T03:35:19;43.07;;;26.17;;
2888;SDS011;1453;42.708;23.282;2022-10-13T03:37:45;42.73;;;25.20;;
2888;SDS011;1453;42.708;23.282;2022-10-13T03:40:11;46.10;;;28.10;;
2888;SDS011;1453;42.708;23.282;2022-10-13T03:42:38;58.40;;;32.83;;
2888;SDS011;1453;42.708;23.282;2022-10-13T03:45:04;55.47;;;29.45;;
2888;SDS011;1453;42.708;23.282;2022-10-13T03:47:33;54.08;;;28.52;;
2888;SDS011;1453;42.708;23.282;2022-10-13T03:50:00;43.40;;;25.58;;
2888;SDS011;1453;42.708;23.282;2022-10-13T03:52:27;55.78;;;29.13;;
2888;SDS011;1453;42.708;23.282;2022-10-13T03:54:53;74.55;;;28.65;;
2888;SDS011;1453;42.708;23.282;2022-10-13T03:57:19;79.77;;;32.10;;
2888;SDS011;1453;42.708;23.282;2022-10-13T03:59:45;56.53;;;29.13;;
2888;SDS011;1453;42.708;23.282;2022-10-13T04:02:11;61.33;;;31.43;;
2888;SDS011;1453;42.708;23.282;2022-10-13T04:04:37;59.83;;;31.70;;
2888;SDS011;1453;42.708;23.282;2022-10-13T04:07:03;65.30;;;32.75;;
2888;SDS011;1453;42.708;23.282;2022-10-13T04:09:29;66.80;;;30.87;;
2888;SDS011;1453;42.708;23.282;2022-10-13T04:11:55;67.20;;;32.80;;
2888;SDS011;1453;42.708;23.282;2022-10-13T04:14:20;71.70;;;35.87;;
2888;SDS011;1453;42.708;23.282;2022-10-13T04:16:46;107.63;;;38.23;;
2888;SDS011;1453;42.708;23.282;2022-10-13T04:19:13;84.40;;;34.43;;
2888;SDS011;1453;42.708;23.282;2022-10-13T04:21:40;71.38;;;33.42;;
2888;SDS011;1453;42.708;23.282;2022-10-13T04:24:07;70.38;;;34.10;;
2888;SDS011;1453;42.708;23.282;2022-10-13T04:26:36;86.32;;;39.50;;
2888;SDS011;1453;42.708;23.282;2022-10-13T04:29:04;131.85;;;42.35;;
2888;SDS011;1453;42.708;23.282;2022-10-13T04:31:31;99.70;;;39.03;;
2888;SDS011;1453;42.708;23.282;2022-10-13T04:33:58;148.27;;;43.53;;
2888;SDS011;1453;42.708;23.282;2022-10-13T04:36:24;108.27;;;40.13;;
2888;SDS011;1453;42.708;23.282;2022-10-13T04:38:52;85.20;;;39.38;;
2888;SDS011;1453;42.708;23.282;2022-10-13T04:41:19;159.70;;;43.97;;
2888;SDS011;1453;42.708;23.282;2022-10-13T04:43:49;168.02;;;47.17;;
2888;SDS011;1453;42.708;23.282;2022-10-13T04:46:17;144.65;;;40.50;;
2888;SDS011;1453;42.708;23.282;2022-10-13T04:48:49;93.50;;;37.50;;
2888;SDS011;1453;42.708;23.282;2022-10-13T04:51:17;120.15;;;40.78;;
2888;SDS011;1453;42.708;23.282;2022-10-13T04:53:45;108.25;;;40.75;;
2888;SDS011;1453;42.708;23.282;2022-10-13T04:56:13;80.22;;;36.90;;
2888;SDS011;1453;42.708;23.282;2022-10-13T04:58:41;91.97;;;39.65;;
2888;SDS011;1453;42.708;23.282;2022-10-13T05:01:13;85.15;;;36.28;;
2888;SDS011;1453;42.708;23.282;2022-10-13T05:03:43;72.90;;;35.25;;
2888;SDS011;1453;42.708;23.282;2022-10-13T05:06:13;83.45;;;39.10;;
2888;SDS011;1453;42.708;23.282;2022-10-13T05:08:41;80.60;;;39.10;;
2888;SDS011;1453;42.708;23.282;2022-10-13T05:11:07;78.05;;;37.65;;
2888;SDS011;1453;42.708;23.282;2022-10-13T05:13:33;77.40;;;36.97;;
2888;SDS011;1453;42.708;23.282;2022-10-13T05:16:00;79.15;;;38.90;;
2888;SDS011;1453;42.708;23.282;2022-10-13T05:18:32;74.72;;;38.20;;
2888;SDS011;1453;42.708;23.282;2022-10-13T05:21:04;75.30;;;37.97;;
2888;SDS011;1453;42.708;23.282;2022-10-13T05:23:42;82.75;;;40.88;;
2888;SDS011;1453;42.708;23.282;2022-10-13T05:26:11;153.18;;;45.85;;
2888;SDS011;1453;42.708;23.282;2022-10-13T05:28:40;88.90;;;40.08;;
2888;SDS011;1453;42.708;23.282;2022-10-13T05:31:10;87.57;;;40.15;;
2888;SDS011;1453;42.708;23.282;2022-10-13T05:33:41;98.90;;;42.60;;
2888;SDS011;1453;42.708;23.282;2022-10-13T05:36:09;99.25;;;45.10;;
2888;SDS011;1453;42.708;23.282;2022-10-13T05:38:38;104.85;;;42.60;;
2888;SDS011;1453;42.708;23.282;2022-10-13T05:41:05;94.33;;;42.50;;
2888;SDS011;1453;42.708;23.282;2022-10-13T05:43:33;88.90;;;38.67;;
2888;SDS011;1453;42.708;23.282;2022-10-13T05:46:00;94.00;;;39.70;;
2888;SDS011;1453;42.708;23.282;2022-10-13T05:48:26;84.73;;;40.00;;
2888;SDS011;1453;42.708;23.282;2022-10-13T05:50:53;63.97;;;35.03;;
2888;SDS011;1453;42.708;23.282;2022-10-13T05:53:22;69.77;;;37.33;;
2888;SDS011;1453;42.708;23.282;2022-10-13T05:55:51;69.10;;;35.30;;
2888;SDS011;1453;42.708;23.282;2022-10-13T05:58:18;81.20;;;35.10;;
2888;SDS011;1453;42.708;23.282;2022-10-13T06:00:45;65.07;;;33.50;;
2888;SDS011;1453;42.708;23.282;2022-10-13T06:03:11;58.13;;;32.85;;
2888;SDS011;1453;42.708;23.282;2022-10-13T06:05:40;89.13;;;33.13;;
2888;SDS011;1453;42.708;23.282;2022-10-13T06:08:09;57.43;;;31.73;;
2888;SDS011;1453;42.708;23.282;2022-10-13T06:10:37;60.97;;;32.20;;
2888;SDS011;1453;42.708;23.282;2022-10-13T06:13:04;60.57;;;32.77;;
2888;SDS011;1453;42.708;23.282;2022-10-13T06:15:30;56.33;;;31.63;;
2888;SDS011;1453;42.708;23.282;2022-10-13T06:17:56;49.23;;;30.83;;
2888;SDS011;1453;42.708;23.282;2022-10-13T06:20:22;50.40;;;31.00;;
2888;SDS011;1453;42.708;23.282;2022-10-13T06:22:49;57.63;;;31.70;;
2888;SDS011;1453;42.708;23.282;2022-10-13T06:25:15;54.20;;;32.40;;
2888;SDS011;1453;42.708;23.282;2022-10-13T06:27:41;52.23;;;28.90;;
2888;SDS011;1453;42.708;23.282;2022-10-13T06:30:07;51.70;;;28.20;;
2888;SDS011;1453;42.708;23.282;2022-10-13T06:32:33;42.07;;;27.47;;
2888;SDS011;1453;42.708;23.282;2022-10-13T06:34:59;48.07;;;27.47;;
2888;SDS011;1453;42.708;23.282;2022-10-13T06:37:25;41.80;;;26.17;;
2888;SDS011;1453;42.708;23.282;2022-10-13T06:39:51;40.13;;;25.77;;
2888;SDS011;1453;42.708;23.282;2022-10-13T06:42:17;45.33;;;25.17;;
2888;SDS011;1453;42.708;23.282;2022-10-13T06:44:43;39.37;;;25.37;;
2888;SDS011;1453;42.708;23.282;2022-10-13T06:47:08;39.23;;;26.00;;
2888;SDS011;1453;42.708;23.282;2022-10-13T06:49:34;39.40;;;24.93;;
2888;SDS011;1453;42.708;23.282;2022-10-13T06:52:00;35.90;;;25.63;;
2888;SDS011;1453;42.708;23.282;2022-10-13T06:54:27;37.07;;;24.27;;
2888;SDS011;1453;42.708;23.282;2022-10-13T06:56:53;40.53;;;25.57;;
2888;SDS011;1453;42.708;23.282;2022-10-13T06:59:19;37.10;;;24.10;;
2888;SDS011;1453;42.708;23.282;2022-10-13T07:01:46;38.23;;;26.13;;
2888;SDS011;1453;42.708;23.282;2022-10-13T07:04:12;35.90;;;23.80;;
2888;SDS011;1453;42.708;23.282;2022-10-13T07:06:39;32.93;;;23.00;;
2888;SDS011;1453;42.708;23.282;2022-10-13T07:09:05;31.60;;;22.47;;
2888;SDS011;1453;42.708;23.282;2022-10-13T07:11:32;37.40;;;24.07;;
2888;SDS011;1453;42.708;23.282;2022-10-13T07:13:59;32.37;;;22.43;;
2888;SDS011;1453;42.708;23.282;2022-10-13T07:16:25;32.07;;;22.60;;
2888;SDS011;1453;42.708;23.282;2022-10-13T07:18:51;30.57;;;22.57;;
2888;SDS011;1453;42.708;23.282;2022-10-13T07:21:17;33.40;;;22.73;;
2888;SDS011;1453;42.708;23.282;2022-10-13T07:23:42;32.37;;;22.47;;
2888;SDS011;1453;42.708;23.282;2022-10-13T07:26:09;30.90;;;22.00;;
2888;SDS011;1453;42.708;23.282;2022-10-13T07:28:38;30.73;;;22.93;;
2888;SDS011;1453;42.708;23.282;2022-10-13T07:31:11;29.90;;;20.37;;
2888;SDS011;1453;42.708;23.282;2022-10-13T07:33:41;35.80;;;24.03;;
2888;SDS011;1453;42.708;23.282;2022-10-13T07:36:10;30.53;;;22.10;;
2888;SDS011;1453;42.708;23.282;2022-10-13T07:38:36;35.97;;;23.43;;
2888;SDS011;1453;42.708;23.282;2022-10-13T07:41:04;31.80;;;23.70;;
2888;SDS011;1453;42.708;23.282;2022-10-13T07:43:32;29.87;;;23.30;;
2888;SDS011;1453;42.708;23.282;2022-10-13T07:45:58;29.27;;;23.10;;
2888;SDS011;1453;42.708;23.282;2022-10-13T07:48:26;32.20;;;24.30;;
2888;SDS011;1453;42.708;23.282;2022-10-13T07:50:52;30.87;;;23.10;;
2888;SDS011;1453;42.708;23.282;2022-10-13T07:53:18;33.20;;;25.23;;
2888;SDS011;1453;42.708;23.282;2022-10-13T07:55:44;31.70;;;24.90;;
2888;SDS011;1453;42.708;23.282;2022-10-13T07:58:10;33.17;;;25.27;;
2888;SDS011;1453;42.708;23.282;2022-10-13T08:00:36;32.60;;;23.30;;
2888;SDS011;1453;42.708;23.282;2022-10-13T08:03:01;35.50;;;24.27;;
2888;SDS011;1453;42.708;23.282;2022-10-13T08:05:27;27.87;;;22.23;;
2888;SDS011;1453;42.708;23.282;2022-10-13T08:07:53;30.13;;;23.27;;
2888;SDS011;1453;42.708;23.282;2022-10-13T08:10:19;32.03;;;23.87;;
2888;SDS011;1453;42.708;23.282;2022-10-13T08:12:45;32.47;;;25.27;;
2888;SDS011;1453;42.708;23.282;2022-10-13T08:15:12;29.77;;;23.67;;
2888;SDS011;1453;42.708;23.282;2022-10-13T08:17:38;31.80;;;23.70;;
2888;SDS011;1453;42.708;23.282;2022-10-13T08:20:04;30.83;;;24.70;;
2888;SDS011;1453;42.708;23.282;2022-10-13T08:22:31;29.70;;;24.47;;
2888;SDS011;1453;42.708;23.282;2022-10-13T08:24:58;29.40;;;22.40;;
2888;SDS011;1453;42.708;23.282;2022-10-13T08:27:28;31.00;;;24.50;;
2888;SDS011;1453;42.708;23.282;2022-10-13T08:29:55;31.43;;;24.63;;
2888;SDS011;1453;42.708;23.282;2022-10-13T08:32:21;33.80;;;24.37;;
2888;SDS011;1453;42.708;23.282;2022-10-13T08:34:47;30.30;;;23.93;;
2888;SDS011;1453;42.708;23.282;2022-10-13T08:37:14;28.93;;;24.33;;
2888;SDS011;1453;42.708;23.282;2022-10-13T08:39:43;30.57;;;23.87;;
2888;SDS011;1453;42.708;23.282;2022-10-13T08:42:19;27.67;;;22.87;;
2888;SDS011;1453;42.708;23.282;2022-10-13T08:45:01;30.50;;;24.17;;
2888;SDS011;1453;42.708;23.282;2022-10-13T08:47:37;29.33;;;23.40;;
2888;SDS011;1453;42.708;23.282;2022-10-13T08:50:13;24.97;;;22.20;;
2888;SDS011;1453;42.708;23.282;2022-10-13T08:52:47;31.10;;;24.20;;
2888;SDS011;1453;42.708;23.282;2022-10-13T08:55:23;28.13;;;23.70;;
2888;SDS011;1453;42.708;23.282;2022-10-13T09:01:22;30.37;;;23.70;;
2888;SDS011;1453;42.708;23.282;2022-10-13T09:09:35;26.37;;;21.33;;
2888;SDS011;1453;42.708;23.282;2022-10-13T09:12:02;25.67;;;21.43;;
2888;SDS011;1453;42.708;23.282;2022-10-13T09:14:30;28.17;;;23.20;;
2888;SDS011;1453;42.708;23.282;2022-10-13T09:17:16;27.50;;;22.37;;
2888;SDS011;1453;42.708;23.282;2022-10-13T09:23:02;26.10;;;21.20;;
2888;SDS011;1453;42.708;23.282;2022-10-13T09:25:43;30.57;;;22.93;;
2888;SDS011;1453;42.708;23.282;2022-10-13T09:30:47;30.20;;;23.43;;
2888;SDS011;1453;42.708;23.282;2022-10-13T09:33:27;28.80;;;22.17;;
2888;SDS011;1453;42.708;23.282;2022-10-13T09:38:26;27.00;;;23.00;;
2888;SDS011;1453;42.708;23.282;2022-10-13T09:48:54;33.57;;;24.17;;
2888;SDS011;1453;42.708;23.282;2022-10-13T09:51:43;30.27;;;23.80;;
2888;SDS011;1453;42.708;23.282;2022-10-13T09:54:23;27.77;;;22.60;;
2888;SDS011;1453;42.708;23.282;2022-10-13T10:00:03;29.40;;;23.77;;
2888;SDS011;1453;42.708;23.282;2022-10-13T10:11:17;26.17;;;23.30;;
2888;SDS011;1453;42.708;23.282;2022-10-13T10:13:50;26.10;;;21.70;;
2888;SDS011;1453;42.708;23.282;2022-10-13T10:22:51;37.30;;;24.43;;
2888;SDS011;1453;42.708;23.282;2022-10-13T10:25:25;33.93;;;26.90;;
2888;SDS011;1453;42.708;23.282;2022-10-13T10:30:42;31.70;;;23.67;;
2888;SDS011;1453;42.708;23.282;2022-10-13T10:33:29;28.60;;;24.20;;
2888;SDS011;1453;42.708;23.282;2022-10-13T10:36:22;33.23;;;25.10;;
2888;SDS011;1453;42.708;23.282;2022-10-13T10:39:04;28.07;;;23.63;;
2888;SDS011;1453;42.708;23.282;2022-10-13T10:41:44;30.33;;;24.87;;
2888;SDS011;1453;42.708;23.282;2022-10-13T10:44:23;31.50;;;25.93;;
2888;SDS011;1453;42.708;23.282;2022-10-13T10:47:18;29.50;;;24.10;;
2888;SDS011;1453;42.708;23.282;2022-10-13T10:49:50;27.90;;;23.23;;
2888;SDS011;1453;42.708;23.282;2022-10-13T10:53:08;30.37;;;23.20;;
2888;SDS011;1453;42.708;23.282;2022-10-13T11:00:47;29.23;;;23.53;;
2888;SDS011;1453;42.708;23.282;2022-10-13T11:08:41;27.40;;;22.70;;
2888;SDS011;1453;42.708;23.282;2022-10-13T11:13:54;25.87;;;21.30;;
2888;SDS011;1453;42.708;23.282;2022-10-13T11:18:58;28.47;;;22.90;;
2888;SDS011;1453;42.708;23.282;2022-10-13T11:37:32;24.33;;;19.90;;
2888;SDS011;1453;42.708;23.282;2022-10-13T11:43:12;24.30;;;20.30;;
2888;SDS011;1453;42.708;23.282;2022-10-13T11:46:00;24.30;;;20.17;;
2888;SDS011;1453;42.708;23.282;2022-10-13T11:56:55;26.70;;;19.57;;
2888;SDS011;1453;42.708;23.282;2022-10-13T11:59:23;21.20;;;18.90;;
2888;SDS011;1453;42.708;23.282;2022-10-13T12:01:53;23.87;;;18.30;;
2888;SDS011;1453;42.708;23.282;2022-10-13T12:04:30;21.90;;;17.37;;
2888;SDS011;1453;42.708;23.282;2022-10-13T12:06:57;22.27;;;17.03;;
2888;SDS011;1453;42.708;23.282;2022-10-13T12:09:28;22.37;;;18.10;;
2888;SDS011;1453;42.708;23.282;2022-10-13T12:11:56;21.07;;;16.40;;
2888;SDS011;1453;42.708;23.282;2022-10-13T12:14:39;20.70;;;18.50;;
2888;SDS011;1453;42.708;23.282;2022-10-13T12:19:59;35.33;;;30.50;;
2888;SDS011;1453;42.708;23.282;2022-10-13T12:22:46;24.03;;;17.33;;
2888;SDS011;1453;42.708;23.282;2022-10-13T12:25:20;28.33;;;21.63;;
2888;SDS011;1453;42.708;23.282;2022-10-13T12:27:50;25.17;;;20.20;;
2888;SDS011;1453;42.708;23.282;2022-10-13T12:33:00;20.97;;;16.90;;
2888;SDS011;1453;42.708;23.282;2022-10-13T12:35:28;20.83;;;15.50;;
2888;SDS011;1453;42.708;23.282;2022-10-13T12:38:02;22.00;;;16.00;;
2888;SDS011;1453;42.708;23.282;2022-10-13T12:40:33;17.40;;;15.50;;
2888;SDS011;1453;42.708;23.282;2022-10-13T12:42:59;25.37;;;16.60;;
2888;SDS011;1453;42.708;23.282;2022-10-13T12:45:27;17.73;;;14.40;;
2888;SDS011;1453;42.708;23.282;2022-10-13T12:47:57;18.03;;;15.60;;
2888;SDS011;1453;42.708;23.282;2022-10-13T12:53:00;21.67;;;15.17;;
2888;SDS011;1453;42.708;23.282;2022-10-13T12:55:44;16.73;;;14.20;;
2888;SDS011;1453;42.708;23.282;2022-10-13T12:58:26;15.70;;;14.00;;
2888;SDS011;1453;42.708;23.282;2022-10-13T13:00:56;16.97;;;12.80;;
2888;SDS011;1453;42.708;23.282;2022-10-13T13:03:36;21.80;;;16.73;;
2888;SDS011;1453;42.708;23.282;2022-10-13T13:06:19;16.13;;;14.47;;
2888;SDS011;1453;42.708;23.282;2022-10-13T13:14:33;16.20;;;12.93;;
2888;SDS011;1453;42.708;23.282;2022-10-13T13:17:12;19.73;;;16.07;;
2888;SDS011;1453;42.708;23.282;2022-10-13T13:19:42;21.40;;;16.70;;
2888;SDS011;1453;42.708;23.282;2022-10-13T13:22:11;17.10;;;13.10;;
2888;SDS011;1453;42.708;23.282;2022-10-13T13:24:39;23.43;;;19.50;;
2888;SDS011;1453;42.708;23.282;2022-10-13T13:30:11;15.20;;;12.13;;
2888;SDS011;1453;42.708;23.282;2022-10-13T13:32:40;19.03;;;13.43;;
2888;SDS011;1453;42.708;23.282;2022-10-13T13:35:06;14.80;;;13.03;;
2888;SDS011;1453;42.708;23.282;2022-10-13T13:37:54;17.97;;;14.37;;
2888;SDS011;1453;42.708;23.282;2022-10-13T13:40:22;17.00;;;13.30;;
2888;SDS011;1453;42.708;23.282;2022-10-13T13:42:51;35.77;;;27.97;;
2888;SDS011;1453;42.708;23.282;2022-10-13T13:45:18;15.80;;;11.27;;
2888;SDS011;1453;42.708;23.282;2022-10-13T13:47:48;37.70;;;28.40;;
2888;SDS011;1453;42.708;23.282;2022-10-13T13:52:48;26.23;;;19.90;;
2888;SDS011;1453;42.708;23.282;2022-10-13T13:55:14;13.77;;;9.70;;
2888;SDS011;1453;42.708;23.282;2022-10-13T13:57:41;15.03;;;10.73;;
2888;SDS011;1453;42.708;23.282;2022-10-13T14:00:09;12.20;;;9.73;;
2888;SDS011;1453;42.708;23.282;2022-10-13T14:02:40;19.17;;;12.20;;
2888;SDS011;1453;42.708;23.282;2022-10-13T14:05:07;24.30;;;19.20;;
2888;SDS011;1453;42.708;23.282;2022-10-13T14:07:35;16.47;;;14.17;;
2888;SDS011;1453;42.708;23.282;2022-10-13T14:10:01;11.80;;;9.73;;
2888;SDS011;1453;42.708;23.282;2022-10-13T14:12:29;16.03;;;13.93;;
2888;SDS011;1453;42.708;23.282;2022-10-13T14:14:55;15.30;;;10.80;;
2888;SDS011;1453;42.708;23.282;2022-10-13T14:17:22;20.30;;;15.07;;
2888;SDS011;1453;42.708;23.282;2022-10-13T14:19:51;14.40;;;11.60;;
2888;SDS011;1453;42.708;23.282;2022-10-13T14:22:17;16.20;;;10.03;;
2888;SDS011;1453;42.708;23.282;2022-10-13T14:24:43;38.50;;;26.00;;
2888;SDS011;1453;42.708;23.282;2022-10-13T14:27:09;16.23;;;10.40;;
2888;SDS011;1453;42.708;23.282;2022-10-13T14:29:35;10.73;;;9.10;;
2888;SDS011;1453;42.708;23.282;2022-10-13T14:32:01;14.07;;;10.73;;
2888;SDS011;1453;42.708;23.282;2022-10-13T14:34:27;16.57;;;12.00;;
2888;SDS011;1453;42.708;23.282;2022-10-13T14:36:53;26.97;;;16.63;;
2888;SDS011;1453;42.708;23.282;2022-10-13T14:39:19;14.37;;;9.73;;
2888;SDS011;1453;42.708;23.282;2022-10-13T14:41:45;12.63;;;9.90;;
2888;SDS011;1453;42.708;23.282;2022-10-13T14:44:11;19.63;;;13.40;;
2888;SDS011;1453;42.708;23.282;2022-10-13T14:46:39;48.00;;;32.57;;
2888;SDS011;1453;42.708;23.282;2022-10-13T14:49:05;82.70;;;62.70;;
2888;SDS011;1453;42.708;23.282;2022-10-13T14:51:31;40.60;;;33.07;;
2888;SDS011;1453;42.708;23.282;2022-10-13T14:53:57;17.93;;;13.43;;
2888;SDS011;1453;42.708;23.282;2022-10-13T14:56:26;27.60;;;17.90;;
2888;SDS011;1453;42.708;23.282;2022-10-13T14:58:55;24.13;;;14.70;;
2888;SDS011;1453;42.708;23.282;2022-10-13T15:01:25;23.97;;;15.27;;
2888;SDS011;1453;42.708;23.282;2022-10-13T15:03:51;27.80;;;17.17;;
2888;SDS011;1453;42.708;23.282;2022-10-13T15:06:21;25.30;;;14.03;;
2888;SDS011;1453;42.708;23.282;2022-10-13T15:08:49;18.00;;;11.93;;
2888;SDS011;1453;42.708;23.282;2022-10-13T15:11:16;12.00;;;7.97;;
2888;SDS011;1453;42.708;23.282;2022-10-13T15:13:43;9.73;;;8.40;;
2888;SDS011;1453;42.708;23.282;2022-10-13T15:16:16;15.20;;;12.33;;
2888;SDS011;1453;42.708;23.282;2022-10-13T15:18:45;12.03;;;10.80;;
2888;SDS011;1453;42.708;23.282;2022-10-13T15:21:12;11.53;;;9.33;;
2888;SDS011;1453;42.708;23.282;2022-10-13T15:23:38;11.17;;;9.33;;
2888;SDS011;1453;42.708;23.282;2022-10-13T15:26:04;10.67;;;8.70;;
2888;SDS011;1453;42.708;23.282;2022-10-13T15:28:38;12.47;;;8.50;;
2888;SDS011;1453;42.708;23.282;2022-10-13T15:31:08;8.93;;;7.60;;
2888;SDS011;1453;42.708;23.282;2022-10-13T15:33:35;19.53;;;12.50;;
2888;SDS011;1453;42.708;23.282;2022-10-13T15:36:01;15.53;;;11.83;;
2888;SDS011;1453;42.708;23.282;2022-10-13T15:38:27;18.90;;;12.83;;
2888;SDS011;1453;42.708;23.282;2022-10-13T15:40:57;25.60;;;17.43;;
2888;SDS011;1453;42.708;23.282;2022-10-13T15:43:24;19.73;;;14.37;;
2888;SDS011;1453;42.708;23.282;2022-10-13T15:46:00;17.10;;;9.47;;
2888;SDS011;1453;42.708;23.282;2022-10-13T15:48:30;12.67;;;9.30;;
2888;SDS011;1453;42.708;23.282;2022-10-13T15:50:56;10.10;;;7.87;;
2888;SDS011;1453;42.708;23.282;2022-10-13T15:53:22;9.63;;;7.43;;
2888;SDS011;1453;42.708;23.282;2022-10-13T15:55:48;15.37;;;11.10;;
2888;SDS011;1453;42.708;23.282;2022-10-13T15:58:14;10.90;;;8.30;;
2888;SDS011;1453;42.708;23.282;2022-10-13T16:00:41;15.80;;;10.80;;
2888;SDS011;1453;42.708;23.282;2022-10-13T16:03:14;15.20;;;10.53;;
2888;SDS011;1453;42.708;23.282;2022-10-13T16:05:42;13.43;;;10.60;;
2888;SDS011;1453;42.708;23.282;2022-10-13T16:08:10;15.57;;;10.53;;
2888;SDS011;1453;42.708;23.282;2022-10-13T16:10:38;11.17;;;8.23;;
2888;SDS011;1453;42.708;23.282;2022-10-13T16:13:06;14.70;;;9.23;;
2888;SDS011;1453;42.708;23.282;2022-10-13T16:15:33;15.43;;;10.20;;
2888;SDS011;1453;42.708;23.282;2022-10-13T16:17:59;20.07;;;11.57;;
2888;SDS011;1453;42.708;23.282;2022-10-13T16:20:25;13.13;;;9.57;;
2888;SDS011;1453;42.708;23.282;2022-10-13T16:22:51;13.97;;;10.60;;
2888;SDS011;1453;42.708;23.282;2022-10-13T16:25:18;26.37;;;16.33;;
2888;SDS011;1453;42.708;23.282;2022-10-13T16:27:44;14.40;;;10.20;;
2888;SDS011;1453;42.708;23.282;2022-10-13T16:30:10;12.70;;;9.77;;
2888;SDS011;1453;42.708;23.282;2022-10-13T16:32:37;11.83;;;9.10;;
2888;SDS011;1453;42.708;23.282;2022-10-13T16:35:04;17.57;;;10.93;;
2888;SDS011;1453;42.708;23.282;2022-10-13T16:37:31;11.37;;;7.50;;
2888;SDS011;1453;42.708;23.282;2022-10-13T16:39:57;12.47;;;7.93;;
2888;SDS011;1453;42.708;23.282;2022-10-13T16:42:23;13.17;;;10.33;;
2888;SDS011;1453;42.708;23.282;2022-10-13T16:44:48;11.47;;;8.33;;
2888;SDS011;1453;42.708;23.282;2022-10-13T16:47:14;10.13;;;8.60;;
2888;SDS011;1453;42.708;23.282;2022-10-13T16:49:40;13.23;;;10.40;;
2888;SDS011;1453;42.708;23.282;2022-10-13T16:52:06;11.07;;;8.57;;
2888;SDS011;1453;42.708;23.282;2022-10-13T16:54:31;11.70;;;7.60;;
2888;SDS011;1453;42.708;23.282;2022-10-13T16:56:57;20.57;;;12.70;;
2888;SDS011;1453;42.708;23.282;2022-10-13T16:59:23;37.27;;;26.43;;
2888;SDS011;1453;42.708;23.282;2022-10-13T17:01:49;22.97;;;14.43;;